Weather at Menorca Airport

Public forecast

Using degrees Celsius for public forecast. Weather courtesy of forecast.io.

Current aviation weather report (METAR) for Menorca Airport

2024/05/25 06:00 (retrieved 14 minutes ago)

LEMH 250600Z AUTO 03009KT 9999 FEW008/// 19/19 Q1016

Closest aviation forecast (TAF) to Menorca Airport

Closest forecast is Palma de Mallorca Airport, 70.9 nm (131.2 km) WSW.

2024/05/25 06:27 (retrieved 0 seconds ago)

TAF TAF LEPA 250500Z 2506/2606 05008KT 9999 FEW025 TX26/2512Z TN14/2605Z BECMG 2509/2511 22013KT BECMG 2518/2520 VRB03KT